Time;durP1;ratioP1;P1;durP2;ratioP2;P2;SDS_P1;SDS_P2;PMS_P1;PMS_P2;Temp;Humidity;BMP_temperature;BMP_pressure;BME280_temperature;BME280_humidity;BME280_pressure;Samples;Min_cycle;Max_cycle;Signal;HPM_P1;HPM_P2
2023/03/07 00:01:42;;;;;;;;;;;;;;;22.42;18.52;96848.16;5023988;28;19925;-96
2023/03/07 00:04:11;;;;;;;;;;;;;;;22.47;18.66;96846.78;5034843;28;19940;-96
2023/03/07 00:06:46;;;;;;;;;;;;;;;22.36;18.19;96849.16;5031571;28;20326;-96
2023/03/07 00:13:01;;;;;;;;;;;;;;;;;;;;;
2023/03/07 00:15:28;;;;;;;;;;;;;;;22.11;18.97;96843.63;5036471;28;19921;-96
2023/03/07 00:17:54;;;;;;;;;;;;;;;22.25;18.78;96834.75;5023418;28;20254;-96
2023/03/07 00:20:20;;;;;;;;;;;;;;;22.15;18.88;96842.28;5008132;28;19928;-96
2023/03/07 00:22:46;;;;;;;;;;;;;;;22.00;18.75;96833.63;5014316;28;20004;-95
2023/03/07 00:25:13;;;;;;;;;;;;;;;21.99;18.52;96843.22;5014599;28;19944;-96
2023/03/07 00:27:40;;;;;;;;;;;;;;;21.71;18.51;96837.72;4997397;28;20289;-96
2023/03/07 00:30:06;;;;;;;;;;;;;;;21.90;18.76;96831.16;5011285;28;20381;-95
2023/03/07 00:32:32;;;;;;;;;;;;;;;21.97;18.52;96834.50;4995426;28;20421;-95
2023/03/07 00:34:59;;;;;;;;;;;;;;;21.70;18.98;96836.19;5012879;28;19922;-95
2023/03/07 00:37:25;;;;;;;;;;;;;;;21.86;18.92;96828.50;5013946;28;19922;-95
2023/03/07 00:39:51;;;;;;;;;;;;;;;22.10;19.29;96826.06;5005149;28;20305;-95
2023/03/07 00:42:17;;;;;;;;;;;;;;;22.19;18.60;96828.19;5012747;28;19925;-95
2023/03/07 00:44:43;;;;;;;;;;;;;;;22.25;18.64;96821.56;5014848;28;19984;-96
2023/03/07 00:47:10;;;;;;;;;;;;;;;22.33;18.10;96820.09;5010452;28;19928;-95
2023/03/07 00:49:36;;;;;;;;;;;;;;;22.24;18.84;96822.78;5031497;28;19928;-95
2023/03/07 00:52:05;;;;;;;;;;;;;;;22.16;18.53;96815.13;4998361;28;19918;-96
2023/03/07 00:54:31;;;;;;;;;;;;;;;22.17;18.68;96817.44;5009178;28;19928;-96
2023/03/07 00:56:57;;;;;;;;;;;;;;;22.34;18.86;96807.66;4996616;28;19972;-96
2023/03/07 00:59:31;;;;;;;;;;;;;;;22.16;18.58;96810.31;4997712;28;19921;-96
2023/03/07 01:02:00;;;;;;;;;;;;;;;22.38;18.76;96813.91;5030163;28;19926;-96
2023/03/07 01:04:26;;;;;;;;;;;;;;;22.41;18.93;96807.41;5016181;28;19964;-96
2023/03/07 01:06:55;;;;;;;;;;;;;;;22.44;18.60;96811.34;5030215;28;19968;-96
2023/03/07 01:09:22;;;;;;;;;;;;;;;22.50;18.70;96801.91;5004371;28;20369;-96
2023/03/07 01:11:48;;;;;;;;;;;;;;;22.18;18.52;96807.84;5015377;28;20016;-96
2023/03/07 01:14:14;;;;;;;;;;;;;;;22.25;19.12;96795.63;5010234;28;19936;-96
2023/03/07 01:16:43;;;;;;;;;;;;;;;22.38;19.06;96797.13;5018620;28;20016;-96
2023/03/07 01:19:12;;;;;;;;;;;;;;;22.55;19.15;96798.53;5000768;28;19925;-96
2023/03/07 01:21:40;;;;;;;;;;;;;;;22.60;19.28;96792.38;5018578;28;19921;-96
2023/03/07 01:24:11;;;;;;;;;;;;;;;22.83;18.58;96793.16;5028090;28;19935;-96
2023/03/07 01:26:40;;;;;;;;;;;;;;;22.62;18.56;96794.72;5031968;28;19955;-95
2023/03/07 01:29:06;;;;;;;;;;;;;;;22.20;19.15;96799.00;5032679;28;20000;-96
2023/03/07 01:31:35;;;;;;;;;;;;;;;22.75;19.22;96784.25;5013510;28;20400;-96
2023/03/07 01:34:10;;;;;;;;;;;;;;;23.08;19.38;96779.00;5033837;28;19927;-96
2023/03/07 01:36:38;;;;;;;;;;;;;;;23.33;19.15;96779.59;5019071;28;19932;-96
2023/03/07 01:39:09;;;;;;;;;;;;;;;23.53;18.76;96776.44;5011355;28;20389;-96
2023/03/07 01:41:37;;;;;;;;;;;;;;;23.65;18.82;96780.34;5029884;28;20436;-95
2023/03/07 01:44:14;;;;;;;;;;;;;;;23.79;18.92;96774.16;5023177;28;19971;-95
2023/03/07 01:46:45;;;;;;;;;;;;;;;23.86;18.20;96776.69;5013260;28;19920;-95
2023/03/07 01:49:25;;;;;;;;;;;;;;;23.93;18.33;96774.38;5031853;28;19996;-94
2023/03/07 01:52:03;;;;;;;;;;;;;;;23.98;18.24;96776.56;5027549;28;19990;-95
2023/03/07 01:54:47;;;;;;;;;;;;;;;24.01;18.65;96772.03;5014554;28;19945;-95
2023/03/07 01:57:16;;;;;;;;;;;;;;;24.03;18.41;96770.34;5032488;28;19929;-95
2023/03/07 02:00:07;;;;;;;;;;;;;;;23.92;18.43;96775.59;5010545;28;19933;-95
2023/03/07 02:02:47;;;;;;;;;;;;;;;23.91;18.21;96771.25;5009848;28;19922;-95
2023/03/07 02:05:19;;;;;;;;;;;;;;;23.53;18.62;96770.03;5000829;28;19922;-94
2023/03/07 02:08:06;;;;;;;;;;;;;;;23.52;18.92;96769.28;5030792;28;19932;-95
2023/03/07 02:10:35;;;;;;;;;;;;;;;23.44;18.38;96773.59;5028111;28;19921;-95
2023/03/07 02:13:02;;;;;;;;;;;;;;;23.32;18.71;96768.84;5004229;28;19932;-94
2023/03/07 02:15:28;;;;;;;;;;;;;;;23.24;18.30;96770.38;5032989;28;19933;-95
2023/03/07 02:17:57;;;;;;;;;;;;;;;23.06;18.56;96770.25;5009102;28;20392;-94
2023/03/07 02:20:35;;;;;;;;;;;;;;;23.22;18.64;96772.88;5027925;28;19921;-94
2023/03/07 02:23:03;;;;;;;;;;;;;;;23.29;19.10;96773.34;5031655;28;19921;-94
2023/03/07 02:25:29;;;;;;;;;;;;;;;23.56;18.62;96775.50;5026798;28;19922;-95
2023/03/07 02:27:56;;;;;;;;;;;;;;;23.71;18.70;96764.50;5008827;28;19964;-96
2023/03/07 02:30:22;;;;;;;;;;;;;;;23.67;18.71;96773.03;5038022;28;19933;-94
2023/03/07 02:32:48;;;;;;;;;;;;;;;22.98;18.10;96774.59;5028386;28;19929;-95
2023/03/07 02:35:17;;;;;;;;;;;;;;;23.20;19.38;96767.69;5017651;28;20035;-95
2023/03/07 02:37:53;;;;;;;;;;;;;;;23.41;18.48;96763.31;5028777;28;19929;-96
2023/03/07 02:40:21;;;;;;;;;;;;;;;23.72;18.84;96772.44;5043370;28;19925;-96
2023/03/07 02:42:52;;;;;;;;;;;;;;;23.92;18.25;96770.00;5034810;28;20288;-96
2023/03/07 02:45:22;;;;;;;;;;;;;;;23.97;18.06;96771.41;5037133;28;19987;-96
2023/03/07 02:47:48;;;;;;;;;;;;;;;23.67;17.95;96770.25;5018350;28;20063;-96
2023/03/07 02:50:14;;;;;;;;;;;;;;;23.34;18.00;96763.56;5027734;28;19925;-96
2023/03/07 02:52:40;;;;;;;;;;;;;;;23.32;18.17;96763.25;5008871;28;19918;-96
2023/03/07 02:55:07;;;;;;;;;;;;;;;23.46;18.41;96762.72;5061106;22;19925;-96
2023/03/07 02:57:34;;;;;;;;;;;;;;;23.44;18.38;96753.97;5036337;28;19997;-96
2023/03/07 03:00:01;;;;;;;;;;;;;;;23.59;18.52;96763.38;5039979;28;19917;-96
2023/03/07 03:02:27;;;;;;;;;;;;;;;23.72;17.84;96763.25;5041766;28;20324;-96
2023/03/07 03:04:53;;;;;;;;;;;;;;;23.42;18.10;96759.28;5047984;28;19916;-96
2023/03/07 03:07:19;;;;;;;;;;;;;;;23.38;18.32;96755.06;5081106;28;19916;-96
2023/03/07 03:09:45;;;;;;;;;;;;;;;23.39;18.21;96760.19;5079416;28;19917;-96
2023/03/07 03:12:11;;;;;;;;;;;;;;;23.45;18.10;96761.16;5060904;28;19916;-96
2023/03/07 03:14:37;;;;;;;;;;;;;;;23.19;18.02;96762.56;5064076;28;19917;-96
2023/03/07 03:17:03;;;;;;;;;;;;;;;23.05;18.34;96765.91;5049774;28;20304;-96
2023/03/07 03:19:29;;;;;;;;;;;;;;;22.82;18.26;96766.41;5022954;28;19925;-96
2023/03/07 03:21:55;;;;;;;;;;;;;;;22.77;18.23;96767.00;5059694;28;19928;-96
2023/03/07 03:24:21;;;;;;;;;;;;;;;22.78;18.61;96762.97;5063476;28;19971;-96
2023/03/07 03:26:47;;;;;;;;;;;;;;;22.83;18.24;96760.34;5055495;28;19920;-96
2023/03/07 03:29:14;;;;;;;;;;;;;;;22.57;18.50;96761.69;5050763;28;20007;-96
2023/03/07 03:31:40;;;;;;;;;;;;;;;22.52;18.40;96768.66;5047370;28;19929;-96
2023/03/07 03:34:06;;;;;;;;;;;;;;;22.47;18.37;96754.50;5046727;28;19920;-96
2023/03/07 03:36:32;;;;;;;;;;;;;;;22.51;18.92;96766.31;5029252;28;20045;-96
2023/03/07 03:38:58;;;;;;;;;;;;;;;22.67;18.73;96761.34;5042156;28;20364;-96
2023/03/07 03:41:25;;;;;;;;;;;;;;;22.82;18.71;96755.22;5040131;28;19921;-96
2023/03/07 03:43:51;;;;;;;;;;;;;;;22.93;18.07;96752.78;5022710;28;19944;-96
2023/03/07 03:46:18;;;;;;;;;;;;;;;22.91;18.58;96761.66;5039200;28;19921;-96
2023/03/07 03:48:52;;;;;;;;;;;;;;;22.76;18.16;96757.81;5056381;28;19920;-96
2023/03/07 03:51:18;;;;;;;;;;;;;;;22.69;18.51;96764.47;5026940;28;20432;-96
2023/03/07 03:53:44;;;;;;;;;;;;;;;22.57;18.51;96759.69;5036180;28;19940;-96
2023/03/07 03:56:12;;;;;;;;;;;;;;;22.46;19.05;96758.50;5039419;28;20082;-96
2023/03/07 03:58:39;;;;;;;;;;;;;;;22.57;18.63;96759.69;5057026;28;20021;-96
2023/03/07 04:01:06;;;;;;;;;;;;;;;22.69;18.76;96767.25;5054319;28;19935;-96
2023/03/07 04:03:33;;;;;;;;;;;;;;;23.02;18.97;96764.03;5052777;28;19928;-96
2023/03/07 04:06:00;;;;;;;;;;;;;;;22.98;18.67;96766.19;5061732;28;19983;-96
2023/03/07 04:08:26;;;;;;;;;;;;;;;22.90;18.72;96771.28;5058043;28;19921;-96
2023/03/07 04:10:53;;;;;;;;;;;;;;;22.89;18.78;96766.94;5075925;28;19916;-96
2023/03/07 04:13:20;;;;;;;;;;;;;;;22.91;18.99;96769.25;5058259;28;19920;-96
2023/03/07 04:15:46;;;;;;;;;;;;;;;22.96;18.41;96765.88;5061206;28;19925;-96
2023/03/07 04:18:15;;;;;;;;;;;;;;;22.96;18.64;96766.66;5075405;28;19920;-96
2023/03/07 04:20:45;;;;;;;;;;;;;;;23.08;18.71;96765.00;5057765;28;19924;-96
2023/03/07 04:23:14;;;;;;;;;;;;;;;22.94;18.28;96771.16;5056926;28;19904;-96
2023/03/07 04:25:42;;;;;;;;;;;;;;;22.79;19.52;96772.91;5051349;28;19947;-96
2023/03/07 04:28:08;;;;;;;;;;;;;;;22.98;18.65;96772.56;5057475;28;19943;-96
2023/03/07 04:30:34;;;;;;;;;;;;;;;23.11;18.94;96766.88;5052895;28;19931;-96
2023/03/07 04:33:01;;;;;;;;;;;;;;;23.14;18.64;96765.97;5035193;28;19951;-96
2023/03/07 04:35:27;;;;;;;;;;;;;;;23.26;18.54;96756.69;5048392;28;19921;-96
2023/03/07 04:37:53;;;;;;;;;;;;;;;23.35;18.98;96767.97;5050421;28;19988;-96
2023/03/07 04:40:19;;;;;;;;;;;;;;;23.45;18.51;96760.38;5048370;28;19918;-96
2023/03/07 04:42:45;;;;;;;;;;;;;;;23.51;18.79;96764.91;5045971;28;19917;-96
2023/03/07 04:45:12;;;;;;;;;;;;;;;23.36;18.56;96764.69;5043870;28;20003;-96
2023/03/07 04:47:38;;;;;;;;;;;;;;;23.27;18.87;96764.63;5058973;28;19971;-96
2023/03/07 04:50:04;;;;;;;;;;;;;;;23.36;18.55;96758.34;5048970;28;20002;-96
2023/03/07 04:52:31;;;;;;;;;;;;;;;23.40;19.01;96760.97;5033505;28;19921;-96
2023/03/07 04:54:57;;;;;;;;;;;;;;;23.28;18.60;96760.59;5049993;28;19925;-96
2023/03/07 04:57:23;;;;;;;;;;;;;;;23.30;18.34;96760.91;5050485;28;19920;-96
2023/03/07 04:59:49;;;;;;;;;;;;;;;23.43;18.69;96757.25;5060044;28;19920;-96
2023/03/07 05:02:15;;;;;;;;;;;;;;;23.45;18.70;96755.56;5039244;28;19921;-96
2023/03/07 05:04:41;;;;;;;;;;;;;;;23.33;18.76;96762.00;5055834;28;19925;-96
2023/03/07 05:07:13;;;;;;;;;;;;;;;23.39;18.78;96757.38;5045916;22;19972;-94
2023/03/07 05:09:50;;;;;;;;;;;;;;;23.37;19.10;96757.06;5018981;28;20370;-96
2023/03/07 05:14:55;;;;;;;;;;;;;;;23.24;18.58;96761.97;3272632;26;19929;-95
2023/03/07 05:17:21;;;;;;;;;;;;;;;23.19;18.97;96762.56;5035106;28;20024;-95
2023/03/07 05:19:49;;;;;;;;;;;;;;;23.21;18.75;96758.06;5052435;28;19936;-95
2023/03/07 05:22:15;;;;;;;;;;;;;;;23.15;19.03;96756.34;5047935;28;19927;-95
2023/03/07 05:24:41;;;;;;;;;;;;;;;23.17;19.08;96756.66;5044088;28;19966;-95
2023/03/07 05:27:08;;;;;;;;;;;;;;;23.43;18.81;96758.03;5043580;28;19921;-93
2023/03/07 05:29:35;;;;;;;;;;;;;;;23.56;18.67;96763.53;5049235;28;19967;-96
2023/03/07 05:32:01;;;;;;;;;;;;;;;23.21;18.68;96757.28;5035622;28;19925;-96
2023/03/07 05:34:27;;;;;;;;;;;;;;;23.40;18.78;96764.56;5047460;28;19928;-93
2023/03/07 05:36:53;;;;;;;;;;;;;;;23.05;18.69;96761.09;5040375;28;19943;-95
2023/03/07 05:39:19;;;;;;;;;;;;;;;23.25;18.66;96760.72;5047318;28;19925;-93
2023/03/07 05:41:45;;;;;;;;;;;;;;;23.25;18.98;96758.72;5044244;28;19917;-90
2023/03/07 05:44:11;;;;;;;;;;;;;;;23.33;18.86;96762.78;5042561;28;19978;-91
2023/03/07 05:46:37;;;;;;;;;;;;;;;23.38;18.88;96761.44;5047516;28;19920;-91
2023/03/07 05:49:03;;;;;;;;;;;;;;;23.53;18.69;96756.03;5027569;28;19969;-89
2023/03/07 05:51:29;;;;;;;;;;;;;;;23.32;19.18;96757.63;5041347;28;19983;-89
2023/03/07 05:53:55;;;;;;;;;;;;;;;23.61;19.28;96760.91;5046016;28;19921;-89
2023/03/07 05:56:21;;;;;;;;;;;;;;;23.22;18.70;96754.00;5041793;28;19925;-90
2023/03/07 05:58:48;;;;;;;;;;;;;;;23.61;19.15;96760.91;5047627;28;20304;-90
2023/03/07 06:01:14;;;;;;;;;;;;;;;23.85;18.57;96756.28;5053526;28;19938;-90
2023/03/07 06:03:41;;;;;;;;;;;;;;;24.01;18.32;96753.19;5053766;28;19962;-90
2023/03/07 06:06:07;;;;;;;;;;;;;;;23.91;19.12;96756.44;5055743;28;19971;-90
2023/03/07 06:08:33;;;;;;;;;;;;;;;24.04;18.75;96759.88;5039330;28;20444;-90
2023/03/07 06:11:00;;;;;;;;;;;;;;;24.17;18.39;96757.75;5053410;28;19948;-90
2023/03/07 06:13:26;;;;;;;;;;;;;;;24.22;18.33;96761.97;5022657;28;19970;-90
2023/03/07 06:15:53;;;;;;;;;;;;;;;24.14;18.46;96760.69;5052141;28;20364;-90
2023/03/07 06:18:20;;;;;;;;;;;;;;;24.14;18.21;96755.09;5057850;28;19924;-90
2023/03/07 06:20:57;;;;;;;;;;;;;;;24.09;18.15;96752.91;5057855;28;20372;-90
2023/03/07 06:23:24;;;;;;;;;;;;;;;23.78;18.60;96755.81;5042599;28;19927;-90
2023/03/07 06:25:50;;;;;;;;;;;;;;;23.91;18.56;96756.44;5053830;28;19927;-90
2023/03/07 06:28:16;;;;;;;;;;;;;;;24.05;18.55;96753.81;5054559;28;19921;-90
2023/03/07 06:30:42;;;;;;;;;;;;;;;24.22;18.62;96759.16;5035749;28;19921;-90
2023/03/07 06:33:08;;;;;;;;;;;;;;;24.20;18.30;96761.66;5049174;28;20296;-89
2023/03/07 06:35:37;;;;;;;;;;;;;;;23.98;18.54;96765.34;5040143;28;20379;-90
2023/03/07 06:38:03;;;;;;;;;;;;;;;24.04;18.91;96757.88;5037175;28;19917;-90
2023/03/07 06:40:29;;;;;;;;;;;;;;;24.18;18.73;96762.09;5037467;28;19917;-90
2023/03/07 06:42:55;;;;;;;;;;;;;;;24.41;18.30;96755.88;5037480;28;19917;-90
2023/03/07 06:45:21;;;;;;;;;;;;;;;24.58;18.49;96764.75;5056147;28;19976;-90
2023/03/07 06:47:47;;;;;;;;;;;;;;;24.60;18.16;96760.22;5048136;28;19921;-90
2023/03/07 06:50:13;;;;;;;;;;;;;;;24.44;18.49;96762.59;5055431;28;20360;-89
2023/03/07 06:52:42;;;;;;;;;;;;;;;24.55;18.88;96755.25;5039246;28;19956;-90
2023/03/07 06:55:08;;;;;;;;;;;;;;;24.77;18.75;96755.09;5056724;28;19920;-90
2023/03/07 06:57:35;;;;;;;;;;;;;;;24.76;18.29;96761.16;5056714;28;19921;-89
2023/03/07 07:00:02;;;;;;;;;;;;;;;24.87;18.76;96767.09;5056787;28;20356;-90
2023/03/07 07:02:28;;;;;;;;;;;;;;;24.96;17.60;96761.47;5055802;28;19920;-89
2023/03/07 07:04:56;;;;;;;;;;;;;;;25.00;18.01;96764.88;5052118;28;19925;-89
2023/03/07 07:07:22;;;;;;;;;;;;;;;24.69;18.73;96765.84;5056443;28;19968;-89
2023/03/07 07:09:48;;;;;;;;;;;;;;;24.71;18.93;96765.38;5057151;28;20034;-89
2023/03/07 07:12:14;;;;;;;;;;;;;;;24.89;18.11;96754.16;5056426;28;19943;-89
2023/03/07 07:14:40;;;;;;;;;;;;;;;24.91;17.70;96754.44;5038376;28;19925;-89
2023/03/07 07:17:07;;;;;;;;;;;;;;;24.10;18.39;96763.66;5036437;28;19927;-89
2023/03/07 07:19:33;;;;;;;;;;;;;;;24.84;19.02;96754.78;5052714;28;20289;-89
2023/03/07 07:21:59;;;;;;;;;;;;;;;25.11;18.72;96749.06;5018591;28;19917;-89
2023/03/07 07:24:25;;;;;;;;;;;;;;;25.17;18.37;96761.25;5036418;28;19956;-89
2023/03/07 07:26:51;;;;;;;;;;;;;;;25.17;18.13;96758.44;5044905;28;19920;-89
2023/03/07 07:29:18;;;;;;;;;;;;;;;25.26;17.98;96757.63;5056622;28;19923;-89
2023/03/07 07:31:44;;;;;;;;;;;;;;;25.03;18.04;96759.09;5056170;28;19924;-89
2023/03/07 07:34:10;;;;;;;;;;;;;;;24.90;18.64;96757.75;5037018;28;20444;-89
2023/03/07 07:36:37;;;;;;;;;;;;;;;24.60;18.12;96746.19;5045824;28;20021;-89
2023/03/07 07:39:04;;;;;;;;;;;;;;;24.75;18.68;96751.97;5043232;28;20295;-88
2023/03/07 07:41:31;;;;;;;;;;;;;;;24.76;19.03;96750.75;5050501;28;19927;-89
2023/03/07 07:43:57;;;;;;;;;;;;;;;25.17;19.05;96747.19;5055880;28;19925;-88
2023/03/07 07:46:23;;;;;;;;;;;;;;;25.50;18.45;96755.69;5055963;28;19920;-88
2023/03/07 07:48:49;;;;;;;;;;;;;;;25.31;17.18;96746.53;5055968;28;19917;-88
2023/03/07 07:51:15;;;;;;;;;;;;;;;25.65;17.89;96750.91;5038263;28;20284;-88
2023/03/07 07:53:41;;;;;;;;;;;;;;;25.22;18.13;96755.00;5053404;28;19932;-88
2023/03/07 07:56:07;;;;;;;;;;;;;;;24.40;18.17;96754.34;5019938;28;20398;-88
2023/03/07 07:58:34;;;;;;;;;;;;;;;23.55;19.49;96756.38;5055271;28;19924;-88
2023/03/07 08:01:00;;;;;;;;;;;;;;;24.17;18.49;96754.16;5037301;28;19916;-88
2023/03/07 08:03:26;;;;;;;;;;;;;;;24.52;18.73;96749.81;5055529;28;20364;-88
2023/03/07 08:05:52;;;;;;;;;;;;;;;23.12;20.75;96744.03;5055572;28;19924;-87
2023/03/07 08:08:18;;;;;;;;;;;;;;;23.51;20.10;96748.09;5055182;28;19913;-88
2023/03/07 08:10:45;;;;;;;;;;;;;;;23.78;19.82;96741.78;5051814;28;19983;-88
2023/03/07 08:13:12;;;;;;;;;;;;;;;24.12;19.38;96749.19;5035422;28;19936;-88
2023/03/07 08:15:39;;;;;;;;;;;;;;;24.33;19.28;96745.44;5049676;28;19928;-88
2023/03/07 08:18:05;;;;;;;;;;;;;;;23.61;19.03;96744.09;5037781;28;20369;-88
2023/03/07 08:20:31;;;;;;;;;;;;;;;23.00;19.10;96744.91;5051596;28;19917;-88
2023/03/07 08:22:57;;;;;;;;;;;;;;;22.81;19.86;96746.03;5055282;28;19917;-88
2023/03/07 08:25:23;;;;;;;;;;;;;;;22.93;19.37;96736.78;5054825;28;20372;-88
2023/03/07 08:27:53;;;;;;;;;;;;;;;23.59;19.12;96732.56;5051290;28;19918;-88
2023/03/07 08:30:20;;;;;;;;;;;;;;;23.26;19.46;96737.09;5035039;28;19924;-88
2023/03/07 08:32:50;;;;;;;;;;;;;;;23.29;19.11;96728.53;5035026;28;20004;-88
2023/03/07 08:35:16;;;;;;;;;;;;;;;23.34;21.66;96721.53;5044994;28;19921;-88
2023/03/07 08:37:43;;;;;;;;;;;;;;;23.73;19.42;96728.38;5046384;28;19921;-88
2023/03/07 08:40:09;;;;;;;;;;;;;;;24.30;18.97;96729.53;5034941;28;19924;-88
2023/03/07 08:42:35;;;;;;;;;;;;;;;24.63;18.61;96719.22;5035182;28;19924;-88
2023/03/07 08:45:01;;;;;;;;;;;;;;;24.60;18.26;96720.16;5035199;28;19925;-88
2023/03/07 08:47:27;;;;;;;;;;;;;;;23.58;18.69;96725.38;5034838;28;20447;-87
2023/03/07 08:49:53;;;;;;;;;;;;;;;24.11;19.35;96725.19;5043557;28;19921;-88
2023/03/07 08:52:19;;;;;;;;;;;;;;;23.90;19.35;96730.44;5054216;28;19924;-88
2023/03/07 08:54:45;;;;;;;;;;;;;;;24.72;18.78;96727.63;5052787;28;19917;-87
2023/03/07 08:57:11;;;;;;;;;;;;;;;25.33;18.85;96727.16;5052807;28;19917;-88
2023/03/07 08:59:37;;;;;;;;;;;;;;;24.69;18.30;96723.72;5054806;28;20011;-88
2023/03/07 09:02:03;;;;;;;;;;;;;;;24.57;18.65;96721.13;5048730;28;20368;-87
2023/03/07 09:04:29;;;;;;;;;;;;;;;24.52;18.62;96724.56;5033210;28;20293;-88
2023/03/07 09:06:57;;;;;;;;;;;;;;;25.01;18.44;96727.91;5032476;28;20339;-88
2023/03/07 09:09:23;;;;;;;;;;;;;;;24.55;20.09;96723.63;5016422;28;20254;-88
2023/03/07 09:11:49;;;;;;;;;;;;;;;24.05;19.23;96719.41;5016328;28;20348;-88
2023/03/07 09:14:16;;;;;;;;;;;;;;;24.76;19.51;96719.88;5053565;28;19932;-88
2023/03/07 09:16:42;;;;;;;;;;;;;;;24.74;18.70;96711.09;5054335;28;19970;-88
2023/03/07 09:19:08;;;;;;;;;;;;;;;24.81;19.57;96722.03;5048096;28;19917;-87
2023/03/07 09:21:34;;;;;;;;;;;;;;;25.39;18.26;96718.88;5034316;28;19913;-88
2023/03/07 09:24:00;;;;;;;;;;;;;;;25.41;19.43;96708.69;5034171;28;20288;-88
2023/03/07 09:26:26;;;;;;;;;;;;;;;24.75;19.34;96707.03;5034512;28;19913;-88
2023/03/07 09:28:52;;;;;;;;;;;;;;;23.28;18.98;96715.00;5035137;28;20464;-88
2023/03/07 09:31:18;;;;;;;;;;;;;;;23.36;19.65;96705.13;5049190;28;20320;-88
2023/03/07 09:33:45;;;;;;;;;;;;;;;23.79;19.72;96702.09;5053925;28;19912;-88
2023/03/07 09:36:11;;;;;;;;;;;;;;;24.26;19.87;96703.69;5046896;28;19924;-88
2023/03/07 09:38:38;;;;;;;;;;;;;;;24.15;20.49;96701.38;5033983;28;20293;-88
2023/03/07 09:41:17;;;;;;;;;;;;;;;23.94;20.06;96699.47;5015623;28;19917;-88
2023/03/07 09:43:50;;;;;;;;;;;;;;;23.56;21.17;96699.06;5037286;28;19924;-87
2023/03/07 09:46:35;;;;;;;;;;;;;;;24.37;19.78;96690.75;5053862;28;19963;-88
2023/03/07 09:49:15;;;;;;;;;;;;;;;24.89;18.70;96689.56;5053862;28;19917;-88
2023/03/07 09:51:42;;;;;;;;;;;;;;;24.05;19.88;96683.72;5034574;28;19924;-88
2023/03/07 09:54:13;;;;;;;;;;;;;;;24.28;18.78;96682.34;5051322;28;19920;-90
2023/03/07 09:56:42;;;;;;;;;;;;;;;24.80;18.77;96686.78;5053586;28;19917;-88
2023/03/07 09:59:08;;;;;;;;;;;;;;;25.53;18.51;96686.50;5041931;28;19966;-88
2023/03/07 10:01:35;;;;;;;;;;;;;;;25.53;18.52;96686.50;5052391;28;19921;-88
2023/03/07 10:04:03;;;;;;;;;;;;;;;25.37;19.50;96682.78;5053517;28;19924;-88
2023/03/07 10:06:29;;;;;;;;;;;;;;;24.90;19.02;96687.53;5053297;28;19921;-89
2023/03/07 10:08:57;;;;;;;;;;;;;;;24.16;19.77;96677.66;5035183;28;19924;-87
2023/03/07 10:11:44;;;;;;;;;;;;;;;23.78;19.41;96671.72;5031352;28;19928;-88
2023/03/07 10:14:30;;;;;;;;;;;;;;;24.22;19.73;96675.03;5033520;28;19925;-88
2023/03/07 10:17:05;;;;;;;;;;;;;;;24.53;19.13;96684.00;5051071;28;20007;-88
2023/03/07 10:19:45;;;;;;;;;;;;;;;24.93;18.34;96678.16;5053514;28;19917;-88
2023/03/07 10:22:20;;;;;;;;;;;;;;;25.63;19.37;96674.72;5053442;28;20015;-88
2023/03/07 10:24:47;;;;;;;;;;;;;;;25.08;20.45;96676.25;5052777;28;19921;-88
2023/03/07 10:27:13;;;;;;;;;;;;;;;25.55;18.98;96675.56;5046730;28;19928;-88
2023/03/07 10:29:49;;;;;;;;;;;;;;;23.77;19.71;96682.16;5034502;28;19921;-88
2023/03/07 10:32:34;;;;;;;;;;;;;;;23.94;22.23;96672.19;5052613;28;19928;-88
2023/03/07 10:35:01;;;;;;;;;;;;;;;24.69;20.06;96670.41;5043491;28;19917;-89
2023/03/07 10:37:39;;;;;;;;;;;;;;;24.09;21.23;96661.16;5033538;28;19917;-88
2023/03/07 10:40:13;;;;;;;;;;;;;;;23.25;21.02;96669.09;5033512;28;19924;-88
2023/03/07 10:42:41;;;;;;;;;;;;;;;24.17;19.96;96665.22;5034899;28;19917;-88
2023/03/07 10:45:10;;;;;;;;;;;;;;;24.65;19.26;96650.16;5040281;28;19939;-89
2023/03/07 10:47:36;;;;;;;;;;;;;;;24.88;18.47;96631.09;5053479;28;19917;-88
2023/03/07 10:50:25;;;;;;;;;;;;;;;24.35;18.12;96644.75;5035220;28;19925;-89
2023/03/07 10:52:53;;;;;;;;;;;;;;;24.50;19.66;96649.28;5056059;28;19917;-88
2023/03/07 10:55:45;;;;;;;;;;;;;;;24.94;18.99;96632.78;5056692;28;19916;-89
2023/03/07 10:58:11;;;;;;;;;;;;;;;24.46;18.46;96636.63;5052966;28;20428;-88
2023/03/07 11:00:37;;;;;;;;;;;;;;;25.21;18.23;96634.66;5053149;28;19948;-89
2023/03/07 11:03:03;;;;;;;;;;;;;;;24.45;19.30;96624.66;5036587;28;19917;-88
2023/03/07 11:05:31;;;;;;;;;;;;;;;24.32;18.69;96626.84;5035462;28;20393;-89
2023/03/07 11:07:58;;;;;;;;;;;;;;;24.61;18.93;96627.09;5052883;28;19917;-88
2023/03/07 11:10:24;;;;;;;;;;;;;;;24.76;18.05;96627.25;5056915;28;19924;-88
2023/03/07 11:12:50;;;;;;;;;;;;;;;23.66;20.06;96617.38;5056821;28;20015;-88
2023/03/07 11:15:22;;;;;;;;;;;;;;;23.56;20.53;96621.41;5055383;28;20304;-88
2023/03/07 11:17:49;;;;;;;;;;;;;;;23.61;19.92;96611.59;5050087;28;20007;-88
2023/03/07 11:20:20;;;;;;;;;;;;;;;23.83;19.33;96613.00;5056496;28;20381;-88
2023/03/07 11:22:47;;;;;;;;;;;;;;;24.32;18.93;96606.44;5056663;28;19916;-88
2023/03/07 11:25:13;;;;;;;;;;;;;;;23.12;22.20;96603.25;5056571;28;19921;-89
2023/03/07 11:27:46;;;;;;;;;;;;;;;22.51;19.85;96607.69;5056523;28;19916;-88
2023/03/07 11:30:31;;;;;;;;;;;;;;;23.44;19.98;96613.13;5055336;28;19928;-88
2023/03/07 11:33:06;;;;;;;;;;;;;;;23.80;18.84;96602.75;5053107;28;19924;-88
2023/03/07 11:35:48;;;;;;;;;;;;;;;23.57;19.47;96597.75;5036970;28;19917;-89
2023/03/07 11:38:26;;;;;;;;;;;;;;;23.75;18.79;96597.75;5042289;28;19917;-88
2023/03/07 11:41:00;;;;;;;;;;;;;;;22.82;20.91;96593.69;5056359;28;19928;-89
2023/03/07 11:43:29;;;;;;;;;;;;;;;22.38;20.93;96590.19;5055901;28;19925;-88
2023/03/07 11:45:59;;;;;;;;;;;;;;;23.44;19.81;96593.53;5037352;28;20292;-88
2023/03/07 11:48:44;;;;;;;;;;;;;;;23.41;21.48;96572.06;5036842;28;19928;-88
2023/03/07 11:51:21;;;;;;;;;;;;;;;23.48;19.77;96582.97;5054731;28;19924;-88
2023/03/07 11:54:06;;;;;;;;;;;;;;;23.70;21.15;96575.97;5055898;28;19917;-89
2023/03/07 11:56:37;;;;;;;;;;;;;;;22.90;19.25;96588.56;5055689;28;19917;-88
2023/03/07 11:59:16;;;;;;;;;;;;;;;23.23;21.08;96570.00;5054202;28;19931;-89
2023/03/07 12:01:55;;;;;;;;;;;;;;;23.54;20.80;96581.09;5055648;28;19920;-88
2023/03/07 12:04:40;;;;;;;;;;;;;;;24.13;19.71;96576.88;5055027;28;20002;-88
2023/03/07 12:07:06;;;;;;;;;;;;;;;24.37;19.19;96578.53;5055835;28;19924;-87
2023/03/07 12:09:32;;;;;;;;;;;;;;;24.68;19.13;96576.25;5046165;28;19921;-88
2023/03/07 12:11:58;;;;;;;;;;;;;;;24.70;19.17;96576.53;5042884;28;19928;-89
2023/03/07 12:14:27;;;;;;;;;;;;;;;25.02;18.21;96566.56;5054335;28;19925;-89
2023/03/07 12:17:08;;;;;;;;;;;;;;;23.73;20.33;96575.03;5055321;28;20012;-89
2023/03/07 12:19:44;;;;;;;;;;;;;;;24.23;19.30;96567.19;5055600;28;19923;-88
2023/03/07 12:22:10;;;;;;;;;;;;;;;22.82;19.20;96557.31;5055232;28;19978;-87
2023/03/07 12:24:48;;;;;;;;;;;;;;;22.91;22.26;96559.34;5037398;28;20380;-87
2023/03/07 12:27:27;;;;;;;;;;;;;;;24.44;19.56;96566.97;5040016;28;19940;-88
2023/03/07 12:29:56;;;;;;;;;;;;;;;24.66;19.12;96563.94;5049287;28;19924;-88
2023/03/07 12:32:23;;;;;;;;;;;;;;;23.79;19.97;96561.94;5046221;28;19952;-88
2023/03/07 12:35:18;;;;;;;;;;;;;;;23.86;20.09;96556.03;5035860;28;19917;-89
2023/03/07 12:37:52;;;;;;;;;;;;;;;23.72;20.99;96545.44;5019622;28;19987;-88
2023/03/07 12:40:24;;;;;;;;;;;;;;;24.41;19.80;96555.94;5054690;28;19928;-89
2023/03/07 12:42:50;;;;;;;;;;;;;;;24.10;20.98;96552.56;5049559;28;19917;-89
2023/03/07 12:45:19;;;;;;;;;;;;;;;25.24;18.97;96561.44;5054328;28;19995;-88
2023/03/07 12:47:57;;;;;;;;;;;;;;;24.89;19.03;96552.00;5054730;28;19923;-89
2023/03/07 12:50:28;;;;;;;;;;;;;;;23.74;18.97;96556.97;5054770;28;20292;-89
2023/03/07 12:53:02;;;;;;;;;;;;;;;22.72;20.56;96563.34;5051282;28;19916;-88
2023/03/07 12:55:31;;;;;;;;;;;;;;;23.16;21.70;96564.69;5047652;28;19968;-88
2023/03/07 12:58:03;;;;;;;;;;;;;;;23.78;20.05;96554.00;5047801;28;20644;-89
2023/03/07 13:00:30;;;;;;;;;;;;;;;24.55;20.17;96552.44;5045468;28;19928;-89
2023/03/07 13:03:00;;;;;;;;;;;;;;;22.99;22.29;96553.00;5051787;28;20070;-88